createdAt,value
2022-11-10T00:00:37.009Z,22.02
2022-11-10T00:03:23.658Z,21.08
2022-11-10T00:06:10.279Z,21.45
2022-11-10T00:08:55.705Z,21.77
2022-11-10T00:11:42.401Z,21.81
2022-11-10T00:14:46.296Z,22.16
2022-11-10T00:17:32.143Z,22.27
2022-11-10T00:20:17.597Z,22.14
2022-11-10T00:23:03.265Z,21.17
2022-11-10T00:25:48.804Z,21.37
2022-11-10T00:28:34.372Z,21.44
2022-11-10T00:31:19.872Z,21.08
2022-11-10T00:34:06.458Z,21.57
2022-11-10T00:36:51.897Z,20.80
2022-11-10T00:39:37.353Z,21.65
2022-11-10T00:42:22.696Z,21.39
2022-11-10T00:45:09.936Z,20.07
2022-11-10T00:47:55.369Z,20.99
2022-11-10T00:50:40.826Z,20.84
2022-11-10T00:53:26.554Z,20.89
2022-11-10T00:56:12.034Z,20.67
2022-11-10T00:58:58.100Z,21.25
2022-11-10T01:01:43.574Z,21.65
2022-11-10T01:04:29.009Z,21.39
2022-11-10T01:07:14.433Z,21.51
2022-11-10T01:10:00.316Z,20.99
2022-11-10T01:12:45.878Z,20.93
2022-11-10T01:15:31.482Z,21.23
2022-11-10T01:18:16.858Z,21.23
2022-11-10T01:21:02.403Z,20.76
2022-11-10T01:23:48.293Z,20.97
2022-11-10T01:26:33.769Z,20.97
2022-11-10T01:29:19.294Z,20.61
2022-11-10T01:32:04.922Z,20.69
2022-11-10T01:34:50.424Z,20.97
2022-11-10T01:37:36.116Z,20.62
2022-11-10T01:40:21.633Z,20.67
2022-11-10T01:43:09.615Z,20.56
2022-11-10T01:46:02.550Z,21.51
2022-11-10T01:48:59.430Z,21.78
2022-11-10T01:51:57.154Z,21.81
2022-11-10T01:54:47.244Z,21.95
2022-11-10T01:57:33.102Z,21.37
2022-11-10T02:00:20.170Z,21.65
2022-11-10T02:03:27.482Z,21.76
2022-11-10T02:06:15.328Z,21.58
2022-11-10T02:09:00.972Z,21.38
2022-11-10T02:11:47.847Z,21.52
2022-11-10T02:14:33.748Z,21.45
2022-11-10T02:17:19.542Z,20.57
2022-11-10T02:20:10.845Z,21.32
2022-11-10T02:22:56.399Z,21.20
2022-11-10T02:25:42.696Z,20.75
2022-11-10T02:28:28.604Z,19.92
2022-11-10T02:31:14.149Z,21.51
2022-11-10T02:33:59.436Z,21.54
2022-11-10T02:36:44.893Z,21.11
2022-11-10T02:39:30.274Z,21.54
2022-11-10T02:42:15.553Z,20.96
2022-11-10T02:45:01.200Z,21.07
2022-11-10T02:47:46.565Z,21.29
2022-11-10T02:50:31.802Z,21.10
2022-11-10T02:53:20.270Z,21.02
2022-11-10T02:56:06.835Z,21.53
2022-11-10T02:58:52.265Z,21.43
2022-11-10T03:01:38.043Z,21.03
2022-11-10T03:04:23.834Z,20.79
2022-11-10T03:07:09.232Z,20.81
2022-11-10T03:09:55.025Z,20.31
2022-11-10T03:12:40.462Z,20.84
2022-11-10T03:15:27.090Z,21.41
2022-11-10T03:18:12.908Z,20.81
2022-11-10T03:20:58.486Z,21.36
2022-11-10T03:23:43.905Z,21.52
2022-11-10T03:26:29.607Z,21.49
2022-11-10T03:29:15.299Z,21.49
2022-11-10T03:32:00.731Z,21.02
2022-11-10T03:34:46.053Z,21.33
2022-11-10T03:37:31.534Z,21.02
2022-11-10T03:40:16.979Z,21.18
2022-11-10T03:43:02.449Z,20.75
2022-11-10T03:45:48.006Z,21.06
2022-11-10T03:48:33.722Z,20.93
2022-11-10T03:51:19.056Z,21.09
2022-11-10T03:54:04.710Z,20.93
2022-11-10T03:56:50.011Z,21.17
2022-11-10T03:59:36.383Z,20.64
2022-11-10T04:02:22.183Z,20.46
2022-11-10T04:05:27.581Z,21.30
2022-11-10T04:08:37.273Z,20.87
2022-11-10T04:11:41.847Z,20.55
2022-11-10T04:14:48.541Z,20.34
2022-11-10T04:17:34.237Z,20.28
2022-11-10T04:20:19.743Z,20.82
2022-11-10T04:23:24.382Z,20.76
2022-11-10T04:26:28.814Z,21.15
2022-11-10T04:29:16.580Z,20.78
2022-11-10T04:32:02.348Z,20.56
2022-11-10T04:34:47.664Z,20.47
2022-11-10T04:37:33.135Z,19.80
2022-11-10T04:40:18.590Z,20.70
2022-11-10T04:43:03.975Z,20.53
2022-11-10T04:45:49.855Z,20.60
2022-11-10T04:48:36.087Z,21.00
2022-11-10T04:51:25.177Z,21.02
2022-11-10T04:54:11.966Z,20.76
2022-11-10T04:56:57.618Z,20.38
2022-11-10T04:59:43.128Z,20.31
2022-11-10T05:02:28.495Z,20.68
2022-11-10T05:05:14.005Z,20.89
2022-11-10T05:08:00.178Z,20.61
2022-11-10T05:10:48.018Z,20.69
2022-11-10T05:13:36.950Z,20.53
2022-11-10T05:16:22.571Z,20.65
2022-11-10T05:19:08.652Z,20.49
2022-11-10T05:21:54.470Z,20.67
2022-11-10T05:24:40.552Z,20.69
2022-11-10T05:27:26.060Z,20.14
2022-11-10T05:30:11.885Z,20.51
2022-11-10T05:32:57.942Z,20.27
2022-11-10T05:35:44.171Z,20.46
2022-11-10T05:38:29.957Z,20.67
2022-11-10T05:41:15.420Z,20.53
2022-11-10T05:44:00.931Z,20.46
2022-11-10T05:46:46.571Z,20.49
2022-11-10T05:49:31.905Z,20.49
2022-11-10T05:52:17.510Z,20.36
2022-11-10T05:55:03.201Z,20.45
2022-11-10T05:57:50.591Z,20.41
2022-11-10T06:00:36.697Z,20.19
2022-11-10T06:03:23.030Z,20.39
2022-11-10T06:06:09.046Z,20.13
2022-11-10T06:08:56.492Z,20.36
2022-11-10T06:11:42.286Z,20.36
2022-11-10T06:14:27.814Z,20.17
2022-11-10T06:17:13.909Z,20.29
2022-11-10T06:19:59.431Z,20.32
2022-11-10T06:23:06.779Z,20.62
2022-11-10T06:25:52.612Z,20.32
2022-11-10T06:28:38.582Z,20.19
2022-11-10T06:31:24.080Z,20.12
2022-11-10T06:34:09.700Z,20.04
2022-11-10T06:36:55.260Z,20.01
2022-11-10T06:39:40.819Z,20.12
2022-11-10T06:42:26.358Z,19.47
2022-11-10T06:45:11.950Z,19.47
2022-11-10T06:48:10.097Z,19.68
2022-11-10T06:50:55.815Z,19.57
2022-11-10T06:53:42.225Z,19.98
2022-11-10T06:56:27.777Z,20.00
2022-11-10T06:59:13.998Z,20.10
2022-11-10T07:01:59.533Z,20.04
2022-11-10T07:04:45.403Z,20.15
2022-11-10T07:07:31.284Z,20.18
2022-11-10T07:10:16.920Z,20.18
2022-11-10T07:13:04.837Z,20.43
2022-11-10T07:15:50.710Z,20.17
2022-11-10T07:18:37.301Z,20.25
2022-11-10T07:21:23.205Z,20.15
2022-11-10T07:24:09.000Z,20.36
2022-11-10T07:26:54.738Z,20.34
2022-11-10T07:29:40.365Z,20.24
2022-11-10T07:32:25.763Z,20.29
2022-11-10T07:35:11.814Z,20.30
2022-11-10T07:37:58.855Z,20.60
2022-11-10T07:40:44.499Z,20.28
2022-11-10T07:43:30.463Z,20.39
2022-11-10T07:46:16.199Z,20.27
2022-11-10T07:49:01.767Z,20.15
2022-11-10T07:51:47.464Z,20.09
2022-11-10T07:54:32.721Z,20.27
2022-11-10T07:57:18.268Z,20.30
2022-11-10T08:00:04.421Z,20.23
2022-11-10T08:02:50.953Z,20.32
2022-11-10T08:05:36.708Z,20.22
2022-11-10T08:08:22.507Z,20.56
2022-11-10T08:11:08.147Z,20.40
2022-11-10T08:13:53.925Z,20.39
2022-11-10T08:16:39.373Z,20.14
2022-11-10T08:19:24.962Z,20.68
2022-11-10T08:22:10.340Z,20.64
2022-11-10T08:24:55.748Z,20.75
2022-11-10T08:27:41.319Z,20.43
2022-11-10T08:30:27.890Z,20.82
2022-11-10T08:33:16.855Z,21.06
2022-11-10T08:36:02.908Z,20.88
2022-11-10T08:38:48.644Z,20.60
2022-11-10T08:41:34.353Z,21.30
2022-11-10T08:44:20.963Z,20.78
2022-11-10T08:47:06.952Z,20.84
2022-11-10T08:49:52.841Z,20.82
2022-11-10T08:52:38.797Z,20.91
2022-11-10T08:55:24.680Z,20.61
2022-11-10T08:58:16.445Z,21.11
2022-11-10T09:01:02.337Z,20.61
2022-11-10T09:03:47.838Z,20.65
2022-11-10T09:06:33.479Z,21.03
2022-11-10T09:09:19.658Z,20.88
2022-11-10T09:12:05.825Z,20.75
2022-11-10T09:14:51.713Z,20.69
2022-11-10T09:17:38.257Z,21.16
2022-11-10T09:20:23.938Z,20.71
2022-11-10T09:23:13.180Z,20.98
2022-11-10T09:25:58.871Z,19.78
2022-11-10T09:28:44.591Z,19.94
2022-11-10T09:31:30.192Z,20.08
2022-11-10T09:34:15.787Z,20.27
2022-11-10T09:37:01.491Z,20.31
2022-11-10T09:39:47.014Z,20.64
2022-11-10T09:42:38.372Z,21.20
2022-11-10T09:45:36.397Z,20.50
2022-11-10T09:48:33.358Z,21.26
2022-11-10T09:51:26.911Z,21.11
2022-11-10T09:54:43.622Z,20.94
2022-11-10T09:57:30.254Z,20.42
2022-11-10T10:00:18.445Z,21.23
2022-11-10T10:03:06.391Z,21.26
2022-11-10T10:06:12.850Z,20.98
2022-11-10T10:09:39.367Z,21.45
2022-11-10T10:12:47.944Z,21.01
2022-11-10T10:15:45.001Z,21.46
2022-11-10T10:18:50.593Z,20.99
2022-11-10T10:21:44.330Z,20.42
2022-11-10T10:24:32.443Z,20.91
2022-11-10T10:27:26.417Z,21.62
2022-11-10T10:30:19.115Z,21.01
2022-11-10T10:33:21.008Z,21.08
2022-11-10T10:36:16.524Z,21.21
2022-11-10T10:39:16.280Z,20.74
2022-11-10T10:42:01.931Z,20.61
2022-11-10T10:45:13.855Z,21.05
2022-11-10T10:48:01.359Z,20.73
2022-11-10T10:50:49.149Z,20.43
2022-11-10T10:53:47.651Z,21.19
2022-11-10T10:56:33.644Z,20.77
2022-11-10T10:59:22.480Z,21.09
2022-11-10T11:02:24.819Z,21.44
2022-11-10T11:05:19.994Z,21.62
2022-11-10T11:08:05.659Z,21.49
2022-11-10T11:10:51.009Z,22.04
2022-11-10T11:13:36.988Z,21.98
2022-11-10T11:16:22.630Z,21.76
2022-11-10T11:19:09.437Z,22.25
2022-11-10T11:22:19.655Z,21.78
2022-11-10T11:25:21.010Z,21.30
2022-11-10T11:28:59.016Z,21.99
2022-11-10T11:32:18.538Z,21.76
2022-11-10T11:35:39.455Z,28.72
2022-11-10T11:38:35.947Z,28.15
2022-11-10T11:41:49.700Z,33.18
2022-11-10T11:45:15.690Z,29.80
2022-11-10T11:48:48.452Z,28.19
2022-11-10T11:52:05.465Z,25.38
2022-11-10T11:55:22.918Z,24.34
2022-11-10T11:58:45.236Z,27.80
2022-11-10T12:02:13.102Z,28.21
2022-11-10T12:05:32.069Z,25.73
2022-11-10T12:08:41.902Z,24.02
2022-11-10T12:11:30.201Z,23.83
2022-11-10T12:14:48.113Z,26.24
2022-11-10T12:17:56.312Z,26.22
2022-11-10T12:21:20.553Z,31.57
2022-11-10T12:24:38.216Z,33.28
2022-11-10T12:27:42.161Z,35.76
2022-11-10T12:30:33.162Z,31.94
2022-11-10T12:34:04.082Z,37.30
2022-11-10T12:37:00.453Z,34.48
2022-11-10T12:42:39.167Z,36.24
2022-11-10T12:45:21.610Z,29.79
2022-11-10T12:48:11.914Z,33.98
2022-11-10T12:51:25.257Z,29.81
2022-11-10T12:54:16.874Z,28.06
2022-11-10T12:57:17.783Z,26.95
2022-11-10T13:00:17.309Z,25.38
2022-11-10T13:03:06.050Z,25.07
2022-11-10T13:06:03.931Z,25.01
2022-11-10T13:08:50.634Z,25.43
2022-11-10T13:11:37.523Z,25.97
2022-11-10T13:14:31.205Z,25.24
2022-11-10T13:17:29.334Z,26.41
2022-11-10T13:20:39.848Z,27.20
2022-11-10T13:23:40.206Z,27.54
2022-11-10T13:26:43.732Z,26.59
2022-11-10T13:29:47.339Z,26.76
2022-11-10T13:32:34.825Z,27.50
2022-11-10T13:35:29.524Z,26.67
2022-11-10T13:38:37.485Z,25.68
2022-11-10T13:41:26.156Z,25.78
2022-11-10T13:44:24.971Z,25.61
2022-11-10T13:47:10.301Z,24.52
2022-11-10T13:50:10.525Z,26.29
2022-11-10T13:53:36.467Z,26.57
2022-11-10T13:56:53.085Z,25.27
2022-11-10T14:00:01.352Z,24.67
2022-11-10T14:03:02.126Z,25.24
2022-11-10T14:06:27.456Z,25.33
2022-11-10T14:09:32.171Z,25.06
2022-11-10T14:12:34.320Z,24.74
2022-11-10T14:15:24.004Z,24.43
2022-11-10T14:18:29.207Z,24.58
2022-11-10T14:21:54.009Z,24.55
2022-11-10T14:25:14.321Z,24.31
2022-11-10T14:28:00.044Z,23.92
2022-11-10T14:30:52.562Z,24.07
2022-11-10T14:33:38.630Z,24.05
2022-11-10T14:36:25.192Z,23.81
2022-11-10T14:39:16.329Z,23.83
2022-11-10T14:42:04.947Z,23.64
2022-11-10T14:44:50.692Z,23.03
2022-11-10T14:47:37.586Z,23.06
2022-11-10T14:50:35.868Z,23.53
2022-11-10T14:53:40.875Z,23.57
2022-11-10T14:56:31.375Z,23.71
2022-11-10T14:59:18.999Z,23.34
2022-11-10T15:02:11.600Z,23.33
2022-11-10T15:04:57.382Z,23.65
2022-11-10T15:07:45.310Z,23.05
2022-11-10T15:10:53.285Z,23.36
2022-11-10T15:13:39.786Z,22.89
2022-11-10T15:16:36.208Z,23.05
2022-11-10T15:19:30.392Z,23.18
2022-11-10T15:22:35.825Z,23.25
2022-11-10T15:28:15.071Z,22.88
2022-11-10T15:31:23.319Z,23.09
2022-11-10T15:34:41.664Z,22.77
2022-11-10T15:37:31.246Z,22.73
2022-11-10T15:40:34.565Z,22.60
2022-11-10T15:43:22.657Z,22.24
2022-11-10T15:46:18.803Z,22.36
2022-11-10T15:49:10.541Z,22.41
2022-11-10T15:52:02.807Z,22.21
2022-11-10T15:54:50.980Z,22.30
2022-11-10T15:57:36.675Z,22.05
2022-11-10T16:00:22.462Z,21.82
2022-11-10T16:03:12.130Z,22.18
2022-11-10T16:05:57.637Z,21.78
2022-11-10T16:08:43.939Z,21.99
2022-11-10T16:11:31.160Z,22.08
2022-11-10T16:14:17.957Z,21.66
2022-11-10T16:17:04.087Z,21.70
2022-11-10T16:19:49.619Z,21.75
2022-11-10T16:22:35.051Z,21.63
2022-11-10T16:25:26.593Z,21.68
2022-11-10T16:28:22.175Z,21.97
2022-11-10T16:31:11.675Z,21.96
2022-11-10T16:33:57.477Z,21.79
2022-11-10T16:36:45.986Z,21.77
2022-11-10T16:39:32.053Z,21.50
2022-11-10T16:42:17.491Z,21.38
2022-11-10T16:45:03.168Z,21.48
2022-11-10T16:47:52.372Z,21.51
2022-11-10T16:50:38.473Z,20.97
2022-11-10T16:53:28.111Z,21.34
2022-11-10T16:56:18.593Z,21.52
2022-11-10T16:59:04.986Z,21.43
2022-11-10T17:01:53.128Z,21.55
2022-11-10T17:04:38.790Z,21.22
2022-11-10T17:07:27.066Z,21.49
2022-11-10T17:10:18.719Z,21.51
2022-11-10T17:13:04.345Z,21.07
2022-11-10T17:15:52.544Z,21.39
2022-11-10T17:18:38.457Z,21.31
2022-11-10T17:21:28.585Z,21.20
2022-11-10T17:24:18.856Z,21.14
2022-11-10T17:27:04.289Z,21.08
2022-11-10T17:29:49.865Z,20.85
2022-11-10T17:33:03.147Z,20.95
2022-11-10T17:35:48.437Z,21.14
2022-11-10T17:38:34.114Z,20.79
2022-11-10T17:41:20.606Z,20.97
2022-11-10T17:44:13.123Z,21.32
2022-11-10T17:46:58.761Z,21.42
2022-11-10T17:49:44.479Z,20.97
2022-11-10T17:52:29.950Z,20.85
2022-11-10T17:55:29.765Z,21.15
2022-11-10T17:58:18.958Z,20.72
2022-11-10T18:01:17.417Z,20.86
2022-11-10T18:04:03.185Z,20.61
2022-11-10T18:06:48.726Z,20.32
2022-11-10T18:09:34.621Z,20.35
2022-11-10T18:12:22.834Z,20.59
2022-11-10T18:15:15.330Z,20.88
2022-11-10T18:18:01.439Z,20.67
2022-11-10T18:20:47.268Z,20.64
2022-11-10T18:23:33.419Z,20.77
2022-11-10T18:26:18.802Z,20.48
2022-11-10T18:29:04.525Z,20.46
2022-11-10T18:31:50.449Z,20.44
2022-11-10T18:34:35.888Z,20.53
2022-11-10T18:37:21.587Z,20.62
2022-11-10T18:40:07.786Z,20.45
2022-11-10T18:43:01.862Z,20.63
2022-11-10T18:45:54.948Z,20.65
2022-11-10T18:48:41.202Z,20.27
2022-11-10T18:51:27.214Z,20.36
2022-11-10T18:54:13.521Z,20.45
2022-11-10T18:56:59.318Z,20.43
2022-11-10T18:59:45.303Z,20.50
2022-11-10T19:02:30.860Z,20.41
2022-11-10T19:05:16.389Z,20.33
2022-11-10T19:08:02.430Z,20.38
2022-11-10T19:10:47.955Z,20.36
2022-11-10T19:13:33.424Z,20.38
2022-11-10T19:16:19.591Z,20.33
2022-11-10T19:19:05.130Z,20.19
2022-11-10T19:21:51.101Z,20.16
2022-11-10T19:24:53.808Z,20.05
2022-11-10T19:27:41.907Z,19.94
2022-11-10T19:30:27.488Z,20.03
2022-11-10T19:33:12.781Z,20.08
2022-11-10T19:36:03.813Z,20.34
2022-11-10T19:38:49.753Z,20.04
2022-11-10T19:41:36.838Z,20.23
2022-11-10T19:44:22.640Z,19.91
2022-11-10T19:47:08.417Z,19.96
2022-11-10T19:49:53.968Z,19.76
2022-11-10T19:52:39.467Z,19.78
2022-11-10T19:55:25.099Z,19.73
2022-11-10T19:58:10.591Z,19.77
2022-11-10T20:00:56.494Z,19.76
2022-11-10T20:03:43.312Z,19.72
2022-11-10T20:06:28.800Z,19.65
2022-11-10T20:09:14.414Z,19.79
2022-11-10T20:11:59.647Z,19.78
2022-11-10T20:14:45.126Z,19.78
2022-11-10T20:17:30.673Z,19.78
2022-11-10T20:20:16.687Z,19.67
2022-11-10T20:23:03.264Z,19.78
2022-11-10T20:25:48.790Z,19.58
2022-11-10T20:28:37.341Z,19.76
2022-11-10T20:31:26.224Z,19.76
2022-11-10T20:34:11.782Z,19.48
2022-11-10T20:36:57.401Z,19.44
2022-11-10T20:39:42.870Z,19.39
2022-11-10T20:42:28.474Z,19.26
2022-11-10T20:45:14.670Z,19.47
2022-11-10T20:48:00.465Z,19.47
2022-11-10T20:50:45.947Z,19.40
2022-11-10T20:53:31.380Z,19.25
2022-11-10T20:56:17.012Z,19.46
2022-11-10T20:59:02.839Z,19.48
2022-11-10T21:01:48.608Z,19.36
2022-11-10T21:04:36.854Z,19.38
2022-11-10T21:07:27.460Z,19.30
2022-11-10T21:10:13.299Z,19.16
2022-11-10T21:12:58.760Z,18.94
2022-11-10T21:15:48.391Z,19.23
2022-11-10T21:18:37.439Z,19.40
2022-11-10T21:21:34.505Z,19.26
2022-11-10T21:24:20.920Z,19.03
2022-11-10T21:27:06.778Z,19.21
2022-11-10T21:29:52.918Z,19.13
2022-11-10T21:32:38.281Z,19.07
2022-11-10T21:35:23.831Z,19.00
2022-11-10T21:38:13.692Z,19.26
2022-11-10T21:40:59.006Z,19.03
2022-11-10T21:43:44.471Z,18.66
2022-11-10T21:46:29.895Z,18.86
2022-11-10T21:49:15.438Z,18.82
2022-11-10T21:52:00.971Z,18.83
2022-11-10T21:54:46.435Z,18.70
2022-11-10T21:57:32.182Z,18.73
2022-11-10T22:00:18.258Z,18.76
2022-11-10T22:03:05.809Z,18.82
2022-11-10T22:05:51.745Z,18.71
2022-11-10T22:08:38.529Z,18.73
2022-11-10T22:11:42.971Z,18.49
2022-11-10T22:14:48.937Z,18.67
2022-11-10T22:17:52.911Z,18.56
2022-11-10T22:20:38.380Z,18.40
2022-11-10T22:23:44.057Z,18.30
2022-11-10T22:26:29.775Z,18.09
2022-11-10T22:29:15.068Z,18.43
2022-11-10T22:32:01.401Z,18.73
2022-11-10T22:34:47.789Z,18.27
2022-11-10T22:37:33.376Z,18.47
2022-11-10T22:40:37.963Z,18.42
2022-11-10T22:43:42.472Z,18.40
2022-11-10T22:46:28.817Z,18.47
2022-11-10T22:49:16.684Z,18.55
2022-11-10T22:52:02.476Z,18.34
2022-11-10T22:54:47.760Z,18.40
2022-11-10T22:57:33.485Z,18.31
2022-11-10T23:00:19.086Z,18.25
2022-11-10T23:03:04.378Z,18.32
2022-11-10T23:05:56.152Z,18.46
2022-11-10T23:08:43.857Z,18.39
2022-11-10T23:11:32.020Z,18.65
2022-11-10T23:14:17.667Z,18.25
2022-11-10T23:17:03.258Z,18.23
2022-11-10T23:19:48.823Z,18.17
2022-11-10T23:22:34.316Z,18.26
2022-11-10T23:25:19.883Z,18.20
2022-11-10T23:28:05.487Z,18.24
2022-11-10T23:30:50.909Z,18.09
2022-11-10T23:33:38.187Z,18.25
2022-11-10T23:36:26.031Z,18.45
2022-11-10T23:39:13.144Z,18.14
2022-11-10T23:42:00.555Z,18.13
2022-11-10T23:44:46.130Z,18.14
2022-11-10T23:47:31.664Z,18.03
2022-11-10T23:50:17.171Z,18.01
2022-11-10T23:53:02.632Z,17.95
2022-11-10T23:56:01.355Z,18.22
2022-11-10T23:58:46.586Z,17.84
